Time;durP1;ratioP1;P1;durP2;ratioP2;P2;SDS_P1;SDS_P2;PMS_P1;PMS_P2;Temp;Humidity;BMP_temperature;BMP_pressure;BME280_temperature;BME280_humidity;BME280_pressure;Samples;Min_cycle;Max_cycle;Signal;HPM_P1;HPM_P2
2023/03/25 00:01:12;;;;;;;;;;;;;;;;;;6239989;22;20027;-87
2023/03/25 00:03:40;;;;;;;;;;;;;;;;;;6214378;22;19926;-87
2023/03/25 00:06:06;;;;;;;;;;;;;;;;;;6216668;22;19919;-87
2023/03/25 00:08:32;;;;;;;;;;;;;;;;;;6215295;22;19919;-88
2023/03/25 00:10:58;;;;;;;;;;;;;;;;;;6237949;22;19919;-88
2023/03/25 00:13:24;;;;;;;;;;;;;;;;;;6213716;22;19919;-87
2023/03/25 00:15:52;;;;;;;;;;;;;;;;;;6235619;22;20251;-86
2023/03/25 00:18:18;;;;;;;;;;;;;;;;;;6215035;22;19916;-86
2023/03/25 00:20:44;;;;;;;;;;;;;;;;;;6236713;22;19923;-87
2023/03/25 00:23:10;;;;;;;;;;;;;;;;;;6237135;22;19927;-87
2023/03/25 00:25:36;;;;;;;;;;;;;;;;;;6239398;22;19919;-86
2023/03/25 00:28:02;;;;;;;;;;;;;;;;;;6235438;22;19941;-87
2023/03/25 00:30:28;;;;;;;;;;;;;;;;;;6210206;22;19919;-87
2023/03/25 00:32:56;;;;;;;;;;;;;;;;;;6212366;22;19926;-88
2023/03/25 00:35:22;;;;;;;;;;;;;;;;;;6214386;22;19923;-87
2023/03/25 00:37:56;;;;;;;;;;;;;;;;;;6237009;22;19919;-87
2023/03/25 00:40:22;;;;;;;;;;;;;;;;;;6212348;22;19969;-87
2023/03/25 00:42:48;;;;;;;;;;;;;;;;;;6210472;22;19919;-87
2023/03/25 00:45:15;;;;;;;;;;;;;;;;;;6239282;22;19920;-87
2023/03/25 00:47:41;;;;;;;;;;;;;;;;;;6236743;22;19915;-87
2023/03/25 00:50:07;;;;;;;;;;;;;;;;;;6213735;22;19916;-86
2023/03/25 00:52:33;;;;;;;;;;;;;;;;;;6240517;22;19996;-86
2023/03/25 00:55:00;;;;;;;;;;;;;;;;;;6240987;22;19915;-87
2023/03/25 00:57:26;;;;;;;;;;;;;;;;;;6215904;22;20247;-87
2023/03/25 00:59:52;;;;;;;;;;;;;;;;;;6237968;22;19915;-87
2023/03/25 01:02:20;;;;;;;;;;;;;;;;;;6214507;22;19915;-87
2023/03/25 01:04:48;;;;;;;;;;;;;;;;;;6209878;22;19929;-87
2023/03/25 01:07:14;;;;;;;;;;;;;;;;;;6215890;22;19919;-87
2023/03/25 01:09:40;;;;;;;;;;;;;;;;;;6214315;22;20355;-87
2023/03/25 01:12:09;;;;;;;;;;;;;;;;;;6217252;22;19926;-87
2023/03/25 01:14:35;;;;;;;;;;;;;;;;;;6216780;22;20297;-87
2023/03/25 01:17:01;;;;;;;;;;;;;;;;;;6238014;22;19919;-87
2023/03/25 01:19:27;;;;;;;;;;;;;;;;;;6216799;22;19994;-87
2023/03/25 01:21:53;;;;;;;;;;;;;;;;;;6213551;22;20328;-88
2023/03/25 01:24:19;;;;;;;;;;;;;;;;;;6214907;22;20011;-87
2023/03/25 01:26:45;;;;;;;;;;;;;;;;;;6238596;22;19920;-88
2023/03/25 01:29:11;;;;;;;;;;;;;;;;;;6240831;22;19923;-87
2023/03/25 01:31:37;;;;;;;;;;;;;;;;;;6214940;22;19919;-87
2023/03/25 01:34:03;;;;;;;;;;;;;;;;;;6213601;22;19919;-87
2023/03/25 01:36:29;;;;;;;;;;;;;;;;;;6267916;22;19919;-87
2023/03/25 01:38:57;;;;;;;;;;;;;;;;;;6212549;22;19919;-87
2023/03/25 01:41:23;;;;;;;;;;;;;;;;;;6215671;22;19958;-87
2023/03/25 01:43:49;;;;;;;;;;;;;;;;;;6237440;22;19926;-87
2023/03/25 01:46:16;;;;;;;;;;;;;;;;;;6239954;22;19947;-87
2023/03/25 01:48:41;;;;;;;;;;;;;;;;;;6213248;22;19990;-87
2023/03/25 01:51:07;;;;;;;;;;;;;;;;;;6241158;22;19950;-87
2023/03/25 01:53:33;;;;;;;;;;;;;;;;;;6215937;22;20244;-87
2023/03/25 01:56:01;;;;;;;;;;;;;;;;;;6239187;22;20251;-87
2023/03/25 01:58:27;;;;;;;;;;;;;;;;;;6240438;22;20229;-87
2023/03/25 02:00:54;;;;;;;;;;;;;;;;;;6214696;22;20332;-87
2023/03/25 02:03:20;;;;;;;;;;;;;;;;;;6241184;22;19915;-86
2023/03/25 02:05:46;;;;;;;;;;;;;;;;;;6214887;22;19955;-86
2023/03/25 02:08:19;;;;;;;;;;;;;;;;;;6219151;22;19961;-86
2023/03/25 02:10:45;;;;;;;;;;;;;;;;;;6212490;22;19922;-87
2023/03/25 02:13:11;;;;;;;;;;;;;;;;;;6239847;22;19919;-88
2023/03/25 02:15:37;;;;;;;;;;;;;;;;;;6240840;22;20024;-87
2023/03/25 02:18:03;;;;;;;;;;;;;;;;;;6213277;22;19919;-87
2023/03/25 02:20:29;;;;;;;;;;;;;;;;;;6215428;22;19962;-87
2023/03/25 02:22:55;;;;;;;;;;;;;;;;;;6237550;22;19978;-87
2023/03/25 02:25:21;;;;;;;;;;;;;;;;;;6216219;22;19919;-87
2023/03/25 02:27:47;;;;;;;;;;;;;;;;;;6212415;22;19919;-87
2023/03/25 02:30:13;;;;;;;;;;;;;;;;;;6239144;22;19930;-87
2023/03/25 02:32:39;;;;;;;;;;;;;;;;;;6214808;22;19919;-86
2023/03/25 02:35:06;;;;;;;;;;;;;;;;;;6215388;22;19931;-86
2023/03/25 02:37:32;;;;;;;;;;;;;;;;;;6241011;22;19915;-87
2023/03/25 02:39:58;;;;;;;;;;;;;;;;;;6237726;22;19925;-87
2023/03/25 02:42:24;;;;;;;;;;;;;;;;;;6268337;22;20274;-87
2023/03/25 02:44:50;;;;;;;;;;;;;;;;;;6238313;22;19919;-87
2023/03/25 02:47:16;;;;;;;;;;;;;;;;;;6215176;22;19929;-88
2023/03/25 02:49:42;;;;;;;;;;;;;;;;;;6211742;22;19945;-89
2023/03/25 02:52:08;;;;;;;;;;;;;;;;;;6215268;22;19990;-87
2023/03/25 02:54:35;;;;;;;;;;;;;;;;;;6268071;22;19961;-88
2023/03/25 02:57:02;;;;;;;;;;;;;;;;;;6211349;22;19965;-87
2023/03/25 02:59:29;;;;;;;;;;;;;;;;;;6216615;22;19916;-87
2023/03/25 03:01:57;;;;;;;;;;;;;;;;;;6237784;22;19927;-87
2023/03/25 03:04:23;;;;;;;;;;;;;;;;;;6215926;22;19919;-87
2023/03/25 03:06:49;;;;;;;;;;;;;;;;;;6213522;22;19926;-87
2023/03/25 03:09:16;;;;;;;;;;;;;;;;;;6241806;22;19919;-88
2023/03/25 03:11:42;;;;;;;;;;;;;;;;;;6236808;22;19919;-87
2023/03/25 03:14:08;;;;;;;;;;;;;;;;;;6245902;22;19943;-87
2023/03/25 03:16:34;;;;;;;;;;;;;;;;;;6238210;22;19950;-88
2023/03/25 03:19:01;;;;;;;;;;;;;;;;;;6213668;22;20332;-87
2023/03/25 03:21:28;;;;;;;;;;;;;;;;;;6238404;22;19958;-87
2023/03/25 03:23:54;;;;;;;;;;;;;;;;;;6238731;22;20340;-87
2023/03/25 03:26:20;;;;;;;;;;;;;;;;;;6267833;22;19915;-88
2023/03/25 03:28:46;;;;;;;;;;;;;;;;;;6213297;22;19973;-88
2023/03/25 03:31:12;;;;;;;;;;;;;;;;;;6265911;22;20397;-88
2023/03/25 03:33:39;;;;;;;;;;;;;;;;;;6214945;22;19915;-89
2023/03/25 03:36:05;;;;;;;;;;;;;;;;;;6237954;22;19929;-87
2023/03/25 03:38:31;;;;;;;;;;;;;;;;;;6215861;22;19922;-89
2023/03/25 03:40:57;;;;;;;;;;;;;;;;;;6211484;22;19919;-88
2023/03/25 03:43:23;;;;;;;;;;;;;;;;;;6212983;22;19944;-88
2023/03/25 03:45:50;;;;;;;;;;;;;;;;;;6238080;22;19934;-88
2023/03/25 03:48:16;;;;;;;;;;;;;;;;;;6266447;22;20300;-87
2023/03/25 03:50:41;;;;;;;;;;;;;;;;;;6237772;22;19919;-88
2023/03/25 03:53:07;;;;;;;;;;;;;;;;;;6239767;22;19915;-87
2023/03/25 03:55:36;;;;;;;;;;;;;;;;;;6240325;22;19919;-87
2023/03/25 03:58:02;;;;;;;;;;;;;;;;;;6237793;22;19968;-88
2023/03/25 04:00:28;;;;;;;;;;;;;;;;;;6214564;22;20002;-87
2023/03/25 04:02:54;;;;;;;;;;;;;;;;;;6236937;22;19922;-87
2023/03/25 04:05:20;;;;;;;;;;;;;;;;;;6212915;22;20401;-88
2023/03/25 04:07:53;;;;;;;;;;;;;;;;;;6210268;22;20178;-87
2023/03/25 04:10:19;;;;;;;;;;;;;;;;;;6214376;22;19986;-88
2023/03/25 04:12:45;;;;;;;;;;;;;;;;;;6236956;22;19922;-87
2023/03/25 04:15:11;;;;;;;;;;;;;;;;;;6241088;22;19919;-87
2023/03/25 04:17:38;;;;;;;;;;;;;;;;;;6213063;22;19958;-87
2023/03/25 04:20:07;;;;;;;;;;;;;;;;;;6238385;22;20235;-88
2023/03/25 04:22:36;;;;;;;;;;;;;;;;;;6237783;22;20244;-88
2023/03/25 04:25:02;;;;;;;;;;;;;;;;;;6212040;22;19990;-88
2023/03/25 04:27:28;;;;;;;;;;;;;;;;;;6241296;22;19947;-88
2023/03/25 04:29:56;;;;;;;;;;;;;;;;;;6213004;22;20336;-89
2023/03/25 04:32:22;;;;;;;;;;;;;;;;;;6241721;22;19920;-87
2023/03/25 04:34:48;;;;;;;;;;;;;;;;;;6219400;22;20348;-86
2023/03/25 04:37:14;;;;;;;;;;;;;;;;;;6225646;22;19982;-87
2023/03/25 04:39:40;;;;;;;;;;;;;;;;;;6215750;22;19915;-88
2023/03/25 04:42:07;;;;;;;;;;;;;;;;;;6218224;22;19923;-87
2023/03/25 04:44:37;;;;;;;;;;;;;;;;;;6259388;22;20410;-88
2023/03/25 04:47:03;;;;;;;;;;;;;;;;;;6215794;22;19919;-88
2023/03/25 04:49:29;;;;;;;;;;;;;;;;;;6216397;22;20381;-89
2023/03/25 04:51:56;;;;;;;;;;;;;;;;;;6246389;22;19946;-89
2023/03/25 04:54:22;;;;;;;;;;;;;;;;;;6241775;22;19969;-88
2023/03/25 04:56:49;;;;;;;;;;;;;;;;;;6238883;22;19919;-88
2023/03/25 04:59:15;;;;;;;;;;;;;;;;;;6246789;22;19927;-88
2023/03/25 05:01:44;;;;;;;;;;;;;;;;;;6266906;22;19923;-90
2023/03/25 05:04:11;;;;;;;;;;;;;;;;;;6242465;22;19922;-89
2023/03/25 05:06:40;;;;;;;;;;;;;;;;;;6241535;22;19919;-89
2023/03/25 05:09:06;;;;;;;;;;;;;;;;;;6268294;22;19934;-88
2023/03/25 05:11:32;;;;;;;;;;;;;;;;;;6268720;22;19923;-89
2023/03/25 05:13:58;;;;;;;;;;;;;;;;;;6238648;22;19990;-88
2023/03/25 05:16:25;;;;;;;;;;;;;;;;;;6241349;22;19969;-87
2023/03/25 05:18:51;;;;;;;;;;;;;;;;;;6239480;22;19982;-88
2023/03/25 05:21:17;;;;;;;;;;;;;;;;;;6216804;22;19962;-88
2023/03/25 05:23:43;;;;;;;;;;;;;;;;;;6239397;22;20261;-89
2023/03/25 05:26:11;;;;;;;;;;;;;;;;;;6240563;22;19919;-88
2023/03/25 05:28:37;;;;;;;;;;;;;;;;;;6238627;22;19923;-88
2023/03/25 05:31:07;;;;;;;;;;;;;;;;;;6238136;22;20249;-88
2023/03/25 05:33:33;;;;;;;;;;;;;;;;;;6215474;22;19919;-89
2023/03/25 05:36:00;;;;;;;;;;;;;;;;;;6237174;22;20224;-89
2023/03/25 05:38:26;;;;;;;;;;;;;;;;;;6215848;22;19919;-88
2023/03/25 05:40:52;;;;;;;;;;;;;;;;;;6239073;22;19929;-88
2023/03/25 05:43:21;;;;;;;;;;;;;;;;;;6241020;22;20255;-88
2023/03/25 05:45:47;;;;;;;;;;;;;;;;;;6237884;22;19946;-88
2023/03/25 05:48:13;;;;;;;;;;;;;;;;;;6216301;22;20324;-87
2023/03/25 05:50:42;;;;;;;;;;;;;;;;;;6241800;22;20251;-87
2023/03/25 05:53:10;;;;;;;;;;;;;;;;;;6241076;22;20338;-87
2023/03/25 05:55:36;;;;;;;;;;;;;;;;;;6214627;22;19929;-88
2023/03/25 05:58:02;;;;;;;;;;;;;;;;;;6213990;22;19916;-88
2023/03/25 06:00:29;;;;;;;;;;;;;;;;;;6241715;22;19934;-88
2023/03/25 06:02:55;;;;;;;;;;;;;;;;;;6238215;22;20359;-88
2023/03/25 06:05:22;;;;;;;;;;;;;;;;;;6213518;22;19919;-88
2023/03/25 06:07:48;;;;;;;;;;;;;;;;;;6236418;22;19919;-88
2023/03/25 06:10:17;;;;;;;;;;;;;;;;;;6216952;22;19920;-88
2023/03/25 06:12:44;;;;;;;;;;;;;;;;;;6236700;22;20074;-88
2023/03/25 06:15:10;;;;;;;;;;;;;;;;;;6267017;22;19919;-87
2023/03/25 06:17:37;;;;;;;;;;;;;;;;;;6240608;22;19930;-87
2023/03/25 06:20:06;;;;;;;;;;;;;;;;;;6214507;22;19919;-87
2023/03/25 06:22:32;;;;;;;;;;;;;;;;;;6215913;22;19923;-87
2023/03/25 06:24:58;;;;;;;;;;;;;;;;;;6213279;22;19915;-88
2023/03/25 06:27:26;;;;;;;;;;;;;;;;;;6239326;22;20370;-87
2023/03/25 06:29:52;;;;;;;;;;;;;;;;;;6210523;22;19931;-87
2023/03/25 06:32:18;;;;;;;;;;;;;;;;;;6214020;22;19916;-88
2023/03/25 06:34:44;;;;;;;;;;;;;;;;;;6214558;22;19915;-87
2023/03/25 06:37:10;;;;;;;;;;;;;;;;;;6215024;22;19919;-86
2023/03/25 06:39:36;;;;;;;;;;;;;;;;;;6217269;22;19922;-87
2023/03/25 06:42:02;;;;;;;;;;;;;;;;;;6238120;22;19966;-87
2023/03/25 06:44:28;;;;;;;;;;;;;;;;;;6239355;22;19925;-87
2023/03/25 06:46:54;;;;;;;;;;;;;;;;;;6212147;22;19965;-87
2023/03/25 06:49:20;;;;;;;;;;;;;;;;;;6214628;22;19922;-87
2023/03/25 06:51:46;;;;;;;;;;;;;;;;;;6237161;22;19926;-87
2023/03/25 06:54:12;;;;;;;;;;;;;;;;;;6214885;22;20003;-87
2023/03/25 06:56:38;;;;;;;;;;;;;;;;;;6239013;22;19965;-87
2023/03/25 06:59:04;;;;;;;;;;;;;;;;;;6212621;22;20243;-86
2023/03/25 07:01:30;;;;;;;;;;;;;;;;;;6212461;22;19923;-87
2023/03/25 07:03:56;;;;;;;;;;;;;;;;;;6235934;22;20336;-87
2023/03/25 07:06:22;;;;;;;;;;;;;;;;;;6214569;22;20404;-87
2023/03/25 07:08:49;;;;;;;;;;;;;;;;;;6238444;22;19916;-88
2023/03/25 07:11:15;;;;;;;;;;;;;;;;;;6215074;22;19961;-87
2023/03/25 07:13:41;;;;;;;;;;;;;;;;;;6213207;22;19915;-88
2023/03/25 07:16:06;;;;;;;;;;;;;;;;;;6212855;22;19923;-87
2023/03/25 07:18:32;;;;;;;;;;;;;;;;;;6214920;22;19962;-87
2023/03/25 07:20:59;;;;;;;;;;;;;;;;;;6238101;22;19919;-87
2023/03/25 07:23:25;;;;;;;;;;;;;;;;;;6241019;22;19915;-87
2023/03/25 07:25:51;;;;;;;;;;;;;;;;;;6238422;22;20336;-87
2023/03/25 07:28:17;;;;;;;;;;;;;;;;;;6214281;22;20291;-87
2023/03/25 07:30:43;;;;;;;;;;;;;;;;;;6211340;22;19961;-88
2023/03/25 07:33:08;;;;;;;;;;;;;;;;;;6214098;22;19950;-87
2023/03/25 07:35:34;;;;;;;;;;;;;;;;;;6240359;22;19915;-82
2023/03/25 07:38:01;;;;;;;;;;;;;;;;;;6235690;22;19926;-81
2023/03/25 07:40:27;;;;;;;;;;;;;;;;;;6240195;22;19930;-88
2023/03/25 07:42:53;;;;;;;;;;;;;;;;;;6236032;22;19919;-89
2023/03/25 07:45:19;;;;;;;;;;;;;;;;;;6240395;22;19926;-88
2023/03/25 07:47:48;;;;;;;;;;;;;;;;;;6213211;22;19919;-89
2023/03/25 07:50:14;;;;;;;;;;;;;;;;;;6214388;22;20029;-90
2023/03/25 07:52:40;;;;;;;;;;;;;;;;;;6210977;22;19949;-89
2023/03/25 07:55:06;;;;;;;;;;;;;;;;;;6214965;22;19915;-89
2023/03/25 07:57:32;;;;;;;;;;;;;;;;;;6213768;22;19977;-89
2023/03/25 07:59:58;;;;;;;;;;;;;;;;;;6237935;22;19947;-89
2023/03/25 08:02:24;;;;;;;;;;;;;;;;;;6212969;22;20355;-90
2023/03/25 08:04:53;;;;;;;;;;;;;;;;;;6213681;22;19990;-88
2023/03/25 08:07:19;;;;;;;;;;;;;;;;;;6237614;22;19919;-89
2023/03/25 08:09:45;;;;;;;;;;;;;;;;;;6211652;22;19930;-89
2023/03/25 08:12:11;;;;;;;;;;;;;;;;;;6213830;22;19915;-86
2023/03/25 08:14:37;;;;;;;;;;;;;;;;;;6241513;22;19922;-86
2023/03/25 08:17:03;;;;;;;;;;;;;;;;;;6236790;22;19927;-88
2023/03/25 08:19:29;;;;;;;;;;;;;;;;;;6213662;22;20310;-89
2023/03/25 08:21:55;;;;;;;;;;;;;;;;;;6234682;22;20025;-88
2023/03/25 08:24:22;;;;;;;;;;;;;;;;;;6213817;22;19950;-89
2023/03/25 08:26:48;;;;;;;;;;;;;;;;;;6238051;22;19919;-88
2023/03/25 08:29:16;;;;;;;;;;;;;;;;;;6216000;22;19982;-88
2023/03/25 08:31:45;;;;;;;;;;;;;;;;;;6211431;22;20353;-88
2023/03/25 08:34:11;;;;;;;;;;;;;;;;;;6239195;22;20336;-88
2023/03/25 08:36:38;;;;;;;;;;;;;;;;;;6238592;22;19919;-88
2023/03/25 08:39:08;;;;;;;;;;;;;;;;;;6264133;22;20386;-88
2023/03/25 08:41:34;;;;;;;;;;;;;;;;;;6238701;22;19923;-88
2023/03/25 08:44:00;;;;;;;;;;;;;;;;;;6210917;22;20856;-89
2023/03/25 08:46:26;;;;;;;;;;;;;;;;;;6238984;22;19926;-89
2023/03/25 08:48:52;;;;;;;;;;;;;;;;;;6211371;22;19919;-89
2023/03/25 08:51:18;;;;;;;;;;;;;;;;;;6240232;22;19994;-89
2023/03/25 08:53:44;;;;;;;;;;;;;;;;;;6237031;22;19943;-88
2023/03/25 08:56:10;;;;;;;;;;;;;;;;;;6214066;22;19963;-88
2023/03/25 08:58:36;;;;;;;;;;;;;;;;;;6239798;22;19976;-88
2023/03/25 09:01:02;;;;;;;;;;;;;;;;;;6237016;22;19927;-88
2023/03/25 09:03:28;;;;;;;;;;;;;;;;;;6266285;22;19915;-87
2023/03/25 09:05:54;;;;;;;;;;;;;;;;;;6237158;22;20252;-88
2023/03/25 09:08:20;;;;;;;;;;;;;;;;;;6214271;22;19930;-88
2023/03/25 09:10:46;;;;;;;;;;;;;;;;;;6265001;22;19919;-88
2023/03/25 09:13:12;;;;;;;;;;;;;;;;;;6239244;22;19931;-88
2023/03/25 09:15:38;;;;;;;;;;;;;;;;;;6267576;22;19986;-87
2023/03/25 09:18:04;;;;;;;;;;;;;;;;;;6238554;22;19916;-87
2023/03/25 09:20:30;;;;;;;;;;;;;;;;;;6241221;22;19926;-87
2023/03/25 09:22:56;;;;;;;;;;;;;;;;;;6211647;22;19926;-88
2023/03/25 09:25:22;;;;;;;;;;;;;;;;;;6241236;22;19915;-88
2023/03/25 09:27:48;;;;;;;;;;;;;;;;;;6212527;22;19951;-88
2023/03/25 09:30:14;;;;;;;;;;;;;;;;;;6238681;23;20012;-90
2023/03/25 09:32:40;;;;;;;;;;;;;;;;;;6208390;23;19974;-90
2023/03/25 09:35:06;;;;;;;;;;;;;;;;;;6235709;23;19923;-87
2023/03/25 09:37:32;;;;;;;;;;;;;;;;;;6234947;23;19916;-87
2023/03/25 09:39:58;;;;;;;;;;;;;;;;;;6208688;23;19934;-88
2023/03/25 09:42:24;;;;;;;;;;;;;;;;;;6210664;23;19924;-87
2023/03/25 09:44:50;;;;;;;;;;;;;;;;;;6207127;23;20328;-87
2023/03/25 09:47:16;;;;;;;;;;;;;;;;;;6237720;23;19920;-87
2023/03/25 09:49:42;;;;;;;;;;;;;;;;;;6234106;23;20352;-88
2023/03/25 09:52:08;;;;;;;;;;;;;;;;;;6237312;23;19915;-88
2023/03/25 09:54:34;;;;;;;;;;;;;;;;;;6209908;23;19987;-87
2023/03/25 09:57:00;;;;;;;;;;;;;;;;;;6233700;23;19931;-87
2023/03/25 09:59:26;;;;;;;;;;;;;;;;;;6213166;23;19990;-89
2023/03/25 10:01:52;;;;;;;;;;;;;;;;;;6208142;23;19923;-87
2023/03/25 10:04:18;;;;;;;;;;;;;;;;;;6233326;23;19923;-87
2023/03/25 10:06:44;;;;;;;;;;;;;;;;;;6232773;23;19966;-88
2023/03/25 10:09:10;;;;;;;;;;;;;;;;;;6210589;23;19916;-89
2023/03/25 10:11:36;;;;;;;;;;;;;;;;;;6235690;23;19916;-89
2023/03/25 10:14:02;;;;;;;;;;;;;;;;;;6233054;23;19920;-88
2023/03/25 10:16:28;;;;;;;;;;;;;;;;;;6212348;23;19920;-87
2023/03/25 10:18:54;;;;;;;;;;;;;;;;;;6209486;23;19923;-87
2023/03/25 10:21:20;;;;;;;;;;;;;;;;;;6211597;23;19919;-87
2023/03/25 10:23:46;;;;;;;;;;;;;;;;;;6208001;23;20007;-87
2023/03/25 10:26:12;;;;;;;;;;;;;;;;;;6237576;23;20241;-87
2023/03/25 10:28:38;;;;;;;;;;;;;;;;;;6238570;23;19920;-87
2023/03/25 10:31:04;;;;;;;;;;;;;;;;;;6234510;23;19968;-87
2023/03/25 10:33:30;;;;;;;;;;;;;;;;;;6237717;23;19920;-87
2023/03/25 10:35:56;;;;;;;;;;;;;;;;;;6207760;23;20005;-88
2023/03/25 10:38:25;;;;;;;;;;;;;;;;;;6237356;23;19922;-87
2023/03/25 10:40:51;;;;;;;;;;;;;;;;;;6207896;23;20298;-88
2023/03/25 10:43:17;;;;;;;;;;;;;;;;;;6237362;22;19946;-87
2023/03/25 10:45:43;;;;;;;;;;;;;;;;;;6232784;23;19919;-85
2023/03/25 10:48:09;;;;;;;;;;;;;;;;;;6236970;23;19920;-87
2023/03/25 10:50:35;;;;;;;;;;;;;;;;;;6210859;23;19930;-87
2023/03/25 10:53:01;;;;;;;;;;;;;;;;;;6204200;23;19919;-87
2023/03/25 10:55:27;;;;;;;;;;;;;;;;;;6209294;23;19972;-88
2023/03/25 10:57:53;;;;;;;;;;;;;;;;;;6207419;23;19934;-87
2023/03/25 11:00:19;;;;;;;;;;;;;;;;;;6209989;23;20313;-86
2023/03/25 11:02:45;;;;;;;;;;;;;;;;;;6204940;23;19920;-88
2023/03/25 11:05:15;;;;;;;;;;;;;;;;;;6236431;23;20277;-88
2023/03/25 11:07:41;;;;;;;;;;;;;;;;;;6230881;23;19919;-88
2023/03/25 11:10:08;;;;;;;;;;;;;;;;;;6235153;23;19919;-87
2023/03/25 11:12:34;;;;;;;;;;;;;;;;;;6233730;23;19955;-88
2023/03/25 11:15:01;;;;;;;;;;;;;;;;;;6232958;23;20729;-88
2023/03/25 11:17:27;;;;;;;;;;;;;;;;;;6209449;23;19916;-89
2023/03/25 11:19:53;;;;;;;;;;;;;;;;;;6207921;23;19919;-89
2023/03/25 11:22:19;;;;;;;;;;;;;;;;;;6207025;23;19919;-87
2023/03/25 11:24:45;;;;;;;;;;;;;;;;;;6232719;23;19950;-88
2023/03/25 11:27:11;;;;;;;;;;;;;;;;;;6233341;23;20284;-89
2023/03/25 11:29:37;;;;;;;;;;;;;;;;;;6208414;23;19916;-88
2023/03/25 11:32:03;;;;;;;;;;;;;;;;;;6205839;23;20291;-88
2023/03/25 11:34:29;;;;;;;;;;;;;;;;;;6209766;23;19915;-89
2023/03/25 11:36:56;;;;;;;;;;;;;;;;;;6231403;23;20391;-89
2023/03/25 11:39:22;;;;;;;;;;;;;;;;;;6234709;23;19939;-89
2023/03/25 11:41:48;;;;;;;;;;;;;;;;;;6229660;23;19924;-88
2023/03/25 11:44:14;;;;;;;;;;;;;;;;;;6207583;23;19915;-89
2023/03/25 11:46:40;;;;;;;;;;;;;;;;;;6233576;23;19922;-87
2023/03/25 11:49:06;;;;;;;;;;;;;;;;;;6234077;23;20256;-88
2023/03/25 11:51:32;;;;;;;;;;;;;;;;;;6208702;23;19982;-87
2023/03/25 11:53:58;;;;;;;;;;;;;;;;;;6232515;23;19916;-88
2023/03/25 11:56:24;;;;;;;;;;;;;;;;;;6208486;23;20279;-89
2023/03/25 11:58:50;;;;;;;;;;;;;;;;;;6204689;23;19920;-88
2023/03/25 12:01:16;;;;;;;;;;;;;;;;;;6233601;23;19919;-88
2023/03/25 12:03:42;;;;;;;;;;;;;;;;;;6231557;23;19986;-88
2023/03/25 12:06:08;;;;;;;;;;;;;;;;;;6235431;23;19923;-89
2023/03/25 12:08:34;;;;;;;;;;;;;;;;;;6230403;23;19998;-88
2023/03/25 12:11:00;;;;;;;;;;;;;;;;;;6231046;23;20002;-88
2023/03/25 12:13:26;;;;;;;;;;;;;;;;;;6207895;23;20364;-88
2023/03/25 12:15:52;;;;;;;;;;;;;;;;;;6229721;23;19980;-87
2023/03/25 12:18:18;;;;;;;;;;;;;;;;;;6209555;23;19916;-86
2023/03/25 12:20:44;;;;;;;;;;;;;;;;;;6207257;23;19997;-86
2023/03/25 12:23:10;;;;;;;;;;;;;;;;;;6231819;23;20314;-86
2023/03/25 12:25:36;;;;;;;;;;;;;;;;;;6232335;23;19930;-86
2023/03/25 12:28:02;;;;;;;;;;;;;;;;;;6206572;23;19964;-86
2023/03/25 12:30:29;;;;;;;;;;;;;;;;;;6208190;23;19919;-86
2023/03/25 12:32:55;;;;;;;;;;;;;;;;;;6230836;23;19916;-87
2023/03/25 12:35:21;;;;;;;;;;;;;;;;;;6232834;23;20044;-86
2023/03/25 12:37:48;;;;;;;;;;;;;;;;;;6203833;23;19923;-87
2023/03/25 12:40:14;;;;;;;;;;;;;;;;;;6233458;23;19919;-88
2023/03/25 12:42:41;;;;;;;;;;;;;;;;;;6231966;23;19915;-89
2023/03/25 12:45:08;;;;;;;;;;;;;;;;;;6232184;23;20027;-88
2023/03/25 12:47:34;;;;;;;;;;;;;;;;;;6211021;23;19927;-86
2023/03/25 12:49:59;;;;;;;;;;;;;;;;;;6236985;23;20324;-87
2023/03/25 12:52:25;;;;;;;;;;;;;;;;;;6232679;23;19920;-87
2023/03/25 12:54:51;;;;;;;;;;;;;;;;;;6233030;23;19926;-87
2023/03/25 12:57:17;;;;;;;;;;;;;;;;;;6232287;23;19925;-87
2023/03/25 12:59:43;;;;;;;;;;;;;;;;;;6234124;23;19915;-87
2023/03/25 13:02:09;;;;;;;;;;;;;;;;;;6235332;23;20337;-88
2023/03/25 13:04:36;;;;;;;;;;;;;;;;;;6235731;23;19930;-88
2023/03/25 13:07:03;;;;;;;;;;;;;;;;;;6233697;23;19938;-86
2023/03/25 13:09:29;;;;;;;;;;;;;;;;;;6236861;23;19951;-87
2023/03/25 13:11:55;;;;;;;;;;;;;;;;;;6233618;23;19927;-87
2023/03/25 13:14:21;;;;;;;;;;;;;;;;;;6237029;23;19939;-87
2023/03/25 13:16:47;;;;;;;;;;;;;;;;;;6233584;23;20324;-87
2023/03/25 13:19:12;;;;;;;;;;;;;;;;;;6210655;23;19920;-87
2023/03/25 13:21:39;;;;;;;;;;;;;;;;;;6234540;23;20383;-87
2023/03/25 13:24:04;;;;;;;;;;;;;;;;;;6207534;23;19926;-87
2023/03/25 13:26:30;;;;;;;;;;;;;;;;;;6236014;23;19920;-87
2023/03/25 13:28:57;;;;;;;;;;;;;;;;;;6233692;23;19926;-86
2023/03/25 13:31:23;;;;;;;;;;;;;;;;;;6254301;22;19923;-87
2023/03/25 13:33:50;;;;;;;;;;;;;;;;;;6265584;22;19915;-86
2023/03/25 13:36:16;;;;;;;;;;;;;;;;;;6216086;22;20355;-88
2023/03/25 13:38:42;;;;;;;;;;;;;;;;;;6213894;22;20363;-88
2023/03/25 13:41:08;;;;;;;;;;;;;;;;;;6239794;22;19965;-87
2023/03/25 13:43:34;;;;;;;;;;;;;;;;;;6213636;22;20315;-87
2023/03/25 13:46:01;;;;;;;;;;;;;;;;;;6237791;22;20327;-87
2023/03/25 13:48:28;;;;;;;;;;;;;;;;;;6265891;22;19926;-87
2023/03/25 13:50:54;;;;;;;;;;;;;;;;;;6237224;22;19926;-87
2023/03/25 13:53:20;;;;;;;;;;;;;;;;;;6239689;22;20248;-88
2023/03/25 13:55:46;;;;;;;;;;;;;;;;;;6212270;22;19919;-87
2023/03/25 13:58:12;;;;;;;;;;;;;;;;;;6267076;22;19915;-87
2023/03/25 14:00:38;;;;;;;;;;;;;;;;;;6213014;22;20390;-87
2023/03/25 14:03:04;;;;;;;;;;;;;;;;;;6265782;22;19923;-87
2023/03/25 14:05:31;;;;;;;;;;;;;;;;;;6214954;22;19919;-87
2023/03/25 14:07:57;;;;;;;;;;;;;;;;;;6210882;22;20283;-86
2023/03/25 14:10:22;;;;;;;;;;;;;;;;;;6265431;22;19915;-88
2023/03/25 14:12:49;;;;;;;;;;;;;;;;;;6236994;22;20240;-86
2023/03/25 14:15:15;;;;;;;;;;;;;;;;;;6240839;22;20335;-86
2023/03/25 14:17:41;;;;;;;;;;;;;;;;;;6236839;22;19995;-87
2023/03/25 14:20:11;;;;;;;;;;;;;;;;;;6241532;22;19919;-86
2023/03/25 14:22:38;;;;;;;;;;;;;;;;;;6215898;22;20354;-86
2023/03/25 14:25:04;;;;;;;;;;;;;;;;;;6267133;22;19922;-86
2023/03/25 14:27:31;;;;;;;;;;;;;;;;;;6215196;22;19920;-86
2023/03/25 14:29:57;;;;;;;;;;;;;;;;;;6241175;22;19922;-86
2023/03/25 14:32:24;;;;;;;;;;;;;;;;;;6267691;22;19928;-86
2023/03/25 14:34:50;;;;;;;;;;;;;;;;;;6239593;22;20229;-87
2023/03/25 14:37:16;;;;;;;;;;;;;;;;;;6242164;22;19926;-87
2023/03/25 14:39:43;;;;;;;;;;;;;;;;;;6215753;22;20382;-86
2023/03/25 14:42:12;;;;;;;;;;;;;;;;;;6216784;22;19963;-86
2023/03/25 14:44:39;;;;;;;;;;;;;;;;;;6241270;22;19919;-85
2023/03/25 14:47:11;;;;;;;;;;;;;;;;;;6216301;22;19923;-86
2023/03/25 14:49:37;;;;;;;;;;;;;;;;;;6243332;22;19972;-86
2023/03/25 14:52:05;;;;;;;;;;;;;;;;;;6266659;22;19919;-86
2023/03/25 14:54:31;;;;;;;;;;;;;;;;;;6214238;22;19919;-86
2023/03/25 14:56:57;;;;;;;;;;;;;;;;;;6239390;22;19915;-86
2023/03/25 14:59:23;;;;;;;;;;;;;;;;;;6216954;22;19915;-85
2023/03/25 15:01:49;;;;;;;;;;;;;;;;;;6267114;22;20364;-86
2023/03/25 15:04:16;;;;;;;;;;;;;;;;;;6268745;22;20462;-86
2023/03/25 15:06:42;;;;;;;;;;;;;;;;;;6213429;22;19994;-86
2023/03/25 15:09:09;;;;;;;;;;;;;;;;;;6266744;22;20454;-85
2023/03/25 15:11:36;;;;;;;;;;;;;;;;;;6266245;22;19923;-85
2023/03/25 15:14:02;;;;;;;;;;;;;;;;;;6237713;22;19920;-86
2023/03/25 15:16:28;;;;;;;;;;;;;;;;;;6216918;22;19915;-85
2023/03/25 15:18:54;;;;;;;;;;;;;;;;;;6266884;22;19919;-86
2023/03/25 15:21:20;;;;;;;;;;;;;;;;;;6239471;22;19930;-85
2023/03/25 15:23:46;;;;;;;;;;;;;;;;;;6267038;22;20264;-85
2023/03/25 15:38:59;;;;;;;;;;;;;;;;;;6243165;23;20014;-84
2023/03/25 15:45:12;;;;;;;;;;;;;;;;;;;;;
2023/03/25 15:48:15;;;;;;;;;;;;;;;;;;6121037;23;19971;-85
2023/03/25 15:54:11;;;;;;;;;;;;;;;;;;6174493;23;19918;-85
2023/03/25 17:09:22;;;;;;;;;;;;;;;;;;5841830;24;19924;-83
2023/03/25 17:12:26;;;;;;;;;;;;;;;;;;5838512;24;19927;-82
2023/03/25 17:18:19;;;;;;;;;;;;;;;;;;5932288;24;20329;-83
2023/03/25 17:24:36;;;;;;;;;;;;;;;;;;6024131;23;20259;-83
2023/03/25 17:30:41;;;;;;;;;;;;;;;;;;6025480;23;20378;-83
2023/03/25 17:49:55;;;;;;;;;;;;;;;;;;6249721;22;20003;-83
2023/03/25 17:52:45;;;;;;;;;;;;;;;;;;;;;
2023/03/25 17:55:18;;;;;;;;;;;;;;;;;;6230767;23;19915;-82
2023/03/25 18:00:49;;;;;;;;;;;;;;;;;;6207383;23;20217;-83
2023/03/25 18:15:51;;;;;;;;;;;;;;;;;;5977514;24;19929;-83
2023/03/25 18:19:01;;;;;;;;;;;;;;;;;;;;;
2023/03/25 18:41:03;;;;;;;;;;;;;;;;;;;;;
2023/03/25 18:56:10;;;;;;;;;;;;;;;;;;6264521;22;19923;-85
2023/03/25 18:58:36;;;;;;;;;;;;;;;;;;6239428;22;19915;-85
2023/03/25 19:01:02;;;;;;;;;;;;;;;;;;6265347;22;20224;-85
2023/03/25 19:03:37;;;;;;;;;;;;;;;;;;6238972;22;20422;-85
2023/03/25 19:06:04;;;;;;;;;;;;;;;;;;6235640;22;20005;-85
2023/03/25 19:08:30;;;;;;;;;;;;;;;;;;6238165;22;19966;-85
2023/03/25 19:10:56;;;;;;;;;;;;;;;;;;6209648;22;19930;-85
2023/03/25 19:13:22;;;;;;;;;;;;;;;;;;6239468;22;19986;-85
2023/03/25 19:15:48;;;;;;;;;;;;;;;;;;6236990;22;19919;-85
2023/03/25 19:18:14;;;;;;;;;;;;;;;;;;6235604;22;19994;-85
2023/03/25 19:20:40;;;;;;;;;;;;;;;;;;6212510;22;20307;-85
2023/03/25 19:23:06;;;;;;;;;;;;;;;;;;6237733;22;19922;-85
2023/03/25 19:25:32;;;;;;;;;;;;;;;;;;6237827;22;19915;-85
2023/03/25 19:27:58;;;;;;;;;;;;;;;;;;6234702;22;19965;-85
2023/03/25 19:30:24;;;;;;;;;;;;;;;;;;6239899;22;19921;-86
2023/03/25 19:32:50;;;;;;;;;;;;;;;;;;6209129;22;19919;-86